Time;durP1;ratioP1;P1;durP2;ratioP2;P2;SDS_P1;SDS_P2;PMS_P1;PMS_P2;Temp;Humidity;BMP_temperature;BMP_pressure;BME280_temperature;BME280_humidity;BME280_pressure;Samples;Min_cycle;Max_cycle;Signal;HPM_P1;HPM_P2
2023/01/31 00:02:51;;;;;;;10.50;4.40;;;;;;;4.75;97.63;99702.95;181125;1267;43421;-69
2023/01/31 00:07:21;;;;;;;7.30;3.70;;;;;;;4.73;96.44;99698.86;181060;1266;43549;-67
2023/01/31 00:11:27;;;;;;;14.10;3.50;;;;;;;4.72;95.57;99691.88;181078;1266;58146;-67
2023/01/31 00:47:10;;;;;;;21.80;4.10;;;;;;;4.60;94.67;99761.53;160075;1272;57983;-68
2023/01/31 00:51:17;;;;;;;7.40;2.90;;;;;;;4.62;94.72;99762.27;178673;1272;45004;-67
2023/01/31 00:55:21;;;;;;;19.20;3.90;;;;;;;4.55;94.70;99769.07;180052;1260;43653;-67
2023/01/31 00:59:32;;;;;;;10.10;3.00;;;;;;;4.52;94.94;99773.42;181329;1261;43079;-67
2023/01/31 01:03:38;;;;;;;6.70;2.70;;;;;;;4.54;94.83;99771.04;181372;1261;43089;-67
2023/01/31 01:08:34;;;;;;;16.70;3.40;;;;;;;4.51;94.67;99779.86;181493;1261;58382;-68
2023/01/31 01:12:37;;;;;;;9.80;2.60;;;;;;;4.43;95.35;99795.95;181337;1263;43096;-67
2023/01/31 01:16:42;;;;;;;7.60;2.80;;;;;;;4.35;95.60;99801.77;181302;1263;43691;-67
2023/01/31 01:20:45;;;;;;;17.70;4.70;;;;;;;4.31;96.00;99810.45;181232;1264;43093;-68
2023/01/31 01:25:03;;;;;;;8.60;3.20;;;;;;;4.26;95.63;99806.89;181145;1263;44174;-67
2023/01/31 01:29:06;;;;;;;7.60;3.20;;;;;;;4.32;94.29;99815.45;181272;1266;59391;-67
2023/01/31 01:33:42;;;;;;;6.90;2.20;;;;;;;4.31;93.85;99817.48;181162;1265;43390;-67
2023/01/31 01:37:45;;;;;;;10.30;3.40;;;;;;;4.28;93.15;99820.98;181231;1265;43021;-67
2023/01/31 01:41:51;;;;;;;4.40;1.80;;;;;;;4.28;93.59;99821.85;181125;1265;43131;-66
2023/01/31 01:45:59;;;;;;;18.00;4.50;;;;;;;4.26;92.82;99831.98;181168;1265;43112;-67
2023/01/31 01:50:16;;;;;;;4.00;2.50;;;;;;;4.22;92.28;99836.27;181194;1263;56969;-66
2023/01/31 01:54:44;;;;;;;8.00;3.40;;;;;;;4.16;91.91;99834.54;181250;1263;43821;-68
2023/01/31 01:59:32;;;;;;;8.70;3.80;;;;;;;4.14;91.62;99834.99;181184;1263;43341;-68
2023/01/31 02:30:43;;;;;;;11.20;3.90;;;;;;;4.02;88.83;99905.38;181161;1262;78680;-66
2023/01/31 02:59:11;;;;;;;11.40;2.00;;;;;;;3.83;88.93;99933.84;183553;1245;45065;-66
2023/01/31 03:03:34;;;;;;;6.30;2.60;;;;;;;3.83;89.35;99940.88;183501;1245;43744;-66
2023/01/31 03:07:38;;;;;;;15.70;3.80;;;;;;;3.82;89.05;99954.28;183661;1245;58459;-66
2023/01/31 03:12:07;;;;;;;9.60;2.50;;;;;;;3.80;88.34;99967.06;183534;1244;44968;-65
2023/01/31 03:25:34;;;;;;;14.30;2.70;;;;;;;3.87;89.99;99994.17;183594;1246;44623;-65
2023/01/31 03:29:38;;;;;;;7.30;3.10;;;;;;;3.83;90.42;99997.05;183496;1246;58819;-66
2023/01/31 03:33:57;;;;;;;7.90;3.10;;;;;;;3.85;91.47;99997.80;183657;1245;43731;-66
2023/01/31 03:38:22;;;;;;;9.10;3.70;;;;;;;3.79;91.24;99997.10;183612;1249;43796;-65
2023/01/31 03:47:37;;;;;;;8.40;4.20;;;;;;;3.78;91.11;100006.45;183897;1246;44006;-65
2023/01/31 03:51:47;;;;;;;13.40;4.40;;;;;;;3.78;91.06;100007.17;183562;1246;57255;-65
2023/01/31 04:00:45;;;;;;;16.70;3.70;;;;;;;3.73;92.48;100023.02;183686;1245;43567;-67
2023/01/31 04:04:58;;;;;;;9.10;2.80;;;;;;;3.69;93.27;100037.27;183469;1245;45870;-66
2023/01/31 04:09:00;;;;;;;4.00;2.70;;;;;;;3.63;92.64;100045.19;183863;1246;43788;-66
2023/01/31 04:13:05;;;;;;;5.20;2.60;;;;;;;3.53;93.19;100048.20;183237;1245;58671;-66
2023/01/31 04:17:07;;;;;;;14.70;2.80;;;;;;;3.47;94.46;100046.43;183510;1245;45999;-69
2023/01/31 04:21:14;;;;;;;15.10;4.10;;;;;;;3.36;95.81;100053.69;183590;1245;44982;-69
2023/01/31 04:25:16;;;;;;;6.00;2.60;;;;;;;3.29;95.64;100055.98;183329;1249;46024;-70
2023/01/31 04:29:19;;;;;;;11.80;2.70;;;;;;;3.24;95.96;100060.13;183725;1246;43726;-69
2023/01/31 04:33:22;;;;;;;25.30;3.60;;;;;;;3.18;96.58;100069.73;183715;1246;58400;-69
2023/01/31 04:37:24;;;;;;;22.40;4.70;;;;;;;3.17;96.41;100080.86;184933;1234;46071;-69
2023/01/31 04:41:27;;;;;;;6.10;3.10;;;;;;;3.15;96.53;100087.05;185106;1237;43538;-69
2023/01/31 04:45:29;;;;;;;18.90;2.60;;;;;;;3.22;96.15;100092.46;184757;1234;44963;-69
2023/01/31 04:49:30;;;;;;;8.80;3.80;;;;;;;3.13;95.59;100096.98;184771;1234;44909;-69
2023/01/31 04:54:24;;;;;;;9.70;2.50;;;;;;;3.23;95.24;100095.23;185052;1234;59855;-68
2023/01/31 04:58:26;;;;;;;13.20;2.90;;;;;;;3.21;94.46;100094.27;185496;1234;43877;-68
2023/01/31 05:02:30;;;;;;;10.20;3.90;;;;;;;3.27;94.25;100095.86;185400;1234;43409;-69
2023/01/31 05:06:33;;;;;;;8.80;3.30;;;;;;;3.23;94.15;100086.99;185235;1234;45871;-69
2023/01/31 05:10:35;;;;;;;11.00;2.10;;;;;;;3.19;94.72;100104.54;185263;1234;45856;-69
2023/01/31 05:14:37;;;;;;;8.80;2.40;;;;;;;3.07;94.37;100099.59;185363;1233;57461;-68
2023/01/31 05:18:40;;;;;;;10.10;3.90;;;;;;;3.04;96.02;100115.86;185812;1234;44676;-69
2023/01/31 05:23:09;;;;;;;11.30;4.30;;;;;;;2.92;97.94;100122.63;185482;1235;43461;-67
2023/01/31 05:27:11;;;;;;;9.30;3.40;;;;;;;3.01;98.60;100122.34;185393;1234;45948;-69
2023/01/31 05:31:13;;;;;;;8.30;3.20;;;;;;;2.96;98.66;100117.52;185376;1234;43682;-69
2023/01/31 05:35:20;;;;;;;9.60;3.90;;;;;;;2.90;99.37;100116.23;185474;1237;57870;-68
2023/01/31 05:39:22;;;;;;;;;;;;;;;2.85;98.57;100123.70;185399;1237;43743;-69
2023/01/31 05:43:26;;;;;;;24.70;5.70;;;;;;;2.78;97.68;100132.81;185393;1237;43502;-67
2023/01/31 05:47:28;;;;;;;19.80;6.20;;;;;;;2.70;97.16;100132.17;185329;1237;43571;-69
2023/01/31 05:51:30;;;;;;;4.90;3.20;;;;;;;2.58;97.68;100133.29;184829;1235;44911;-71
2023/01/31 05:55:32;;;;;;;5.40;3.10;;;;;;;2.54;97.52;100138.58;185008;1234;58886;-70
2023/01/31 05:59:34;;;;;;;18.70;6.30;;;;;;;2.39;98.06;100149.83;185303;1234;45952;-69
2023/01/31 06:03:36;;;;;;;6.60;3.20;;;;;;;2.38;97.52;100147.77;185058;1234;44870;-68
2023/01/31 06:07:41;;;;;;;7.50;2.70;;;;;;;2.28;97.39;100154.40;185122;1234;43952;-68
2023/01/31 06:11:43;;;;;;;11.10;3.30;;;;;;;2.13;97.97;100157.71;185036;1235;43698;-69
2023/01/31 06:15:49;;;;;;;14.70;3.90;;;;;;;2.02;98.79;100167.86;185531;1234;58309;-69
2023/01/31 06:19:51;;;;;;;12.70;3.80;;;;;;;2.09;99.76;100162.12;185312;1235;44599;-70
2023/01/31 06:23:53;;;;;;;9.60;3.40;;;;;;;2.20;100.00;100161.95;185369;1234;45948;-70
2023/01/31 06:27:55;;;;;;;5.70;2.30;;;;;;;2.25;100.00;100166.27;185403;1234;46056;-70
2023/01/31 06:31:57;;;;;;;9.20;2.60;;;;;;;2.28;100.00;100163.98;185831;1234;43652;-72
2023/01/31 06:35:59;;;;;;;7.40;2.70;;;;;;;2.29;100.00;100176.92;185656;1235;59161;-71
2023/01/31 06:40:05;;;;;;;19.00;3.40;;;;;;;2.24;100.00;100181.54;185518;1234;43698;-70
2023/01/31 06:44:06;;;;;;;9.80;3.00;;;;;;;2.26;100.00;100191.91;185730;1235;45931;-70
2023/01/31 06:48:08;;;;;;;11.00;2.70;;;;;;;2.40;100.00;100190.02;185267;1234;45832;-69
2023/01/31 06:52:10;;;;;;;7.60;3.10;;;;;;;2.56;99.81;100203.43;185308;1235;43685;-70
2023/01/31 06:56:14;;;;;;;7.60;2.40;;;;;;;2.67;99.21;100206.19;185581;1234;57622;-69
2023/01/31 07:00:17;;;;;;;5.30;3.00;;;;;;;2.74;98.11;100202.86;185575;1235;43859;-70
2023/01/31 07:04:19;;;;;;;11.10;2.90;;;;;;;2.77;97.87;100207.80;185652;1235;44439;-69
2023/01/31 07:08:21;;;;;;;8.00;2.80;;;;;;;2.83;97.12;100205.05;185305;1237;43466;-69
2023/01/31 07:12:22;;;;;;;8.20;2.40;;;;;;;2.89;96.37;100196.48;185336;1235;46147;-70
2023/01/31 07:16:24;;;;;;;13.60;3.60;;;;;;;3.02;95.39;100206.00;185487;1235;60479;-69
2023/01/31 07:20:27;;;;;;;5.00;2.80;;;;;;;3.15;94.41;100221.48;185682;1234;44271;-69
2023/01/31 07:24:28;;;;;;;9.80;3.90;;;;;;;3.24;93.87;100216.30;185527;1235;44939;-69
2023/01/31 07:28:30;;;;;;;10.30;3.90;;;;;;;3.31;93.88;100222.77;185514;1234;43613;-69
2023/01/31 07:32:33;;;;;;;9.10;2.80;;;;;;;3.29;94.30;100228.65;185498;1234;45925;-70
2023/01/31 07:36:40;;;;;;;9.20;3.80;;;;;;;3.30;94.67;100241.05;185685;1237;58168;-70
2023/01/31 07:41:10;;;;;;;11.20;2.10;;;;;;;3.26;94.31;100247.88;185365;1234;45967;-69
2023/01/31 07:45:14;;;;;;;13.40;4.10;;;;;;;3.26;94.35;100250.02;186055;1234;44850;-71
2023/01/31 07:49:25;;;;;;;8.60;2.60;;;;;;;3.19;94.37;100256.16;185511;1237;44617;-69
2023/01/31 07:53:33;;;;;;;10.50;3.20;;;;;;;3.21;94.30;100253.59;185316;1234;43499;-69
2023/01/31 07:57:35;;;;;;;6.80;3.40;;;;;;;3.26;94.31;100260.16;185370;1234;57994;-69
2023/01/31 08:06:10;;;;;;;15.10;4.60;;;;;;;3.40;93.51;100260.30;185958;1233;43738;-71
2023/01/31 08:10:13;;;;;;;7.60;2.90;;;;;;;3.39;93.43;100263.86;185896;1234;43547;-70
2023/01/31 08:14:14;;;;;;;8.20;2.40;;;;;;;3.32;93.65;100264.75;185989;1234;45890;-70
2023/01/31 08:18:16;;;;;;;11.50;3.90;;;;;;;3.39;94.12;100263.70;185908;1234;57545;-69
2023/01/31 08:22:18;;;;;;;5.20;2.00;;;;;;;3.49;93.80;100265.83;185732;1234;45818;-69
2023/01/31 08:26:21;;;;;;;21.00;6.30;;;;;;;3.68;94.15;100257.27;185794;1237;44657;-72
2023/01/31 08:30:23;;;;;;;13.20;3.80;;;;;;;3.87;93.17;100252.27;185715;1233;43621;-70
2023/01/31 08:34:26;;;;;;;13.60;5.40;;;;;;;3.98;92.50;100261.13;185796;1237;45183;-70
2023/01/31 08:38:31;;;;;;;13.10;5.10;;;;;;;4.07;89.13;100251.19;185398;1235;57483;-70
2023/01/31 08:42:34;;;;;;;13.10;3.10;;;;;;;4.26;88.94;100265.91;185356;1233;43698;-69
2023/01/31 08:46:37;;;;;;;9.50;3.00;;;;;;;4.43;91.65;100274.80;185712;1233;44564;-70
2023/01/31 08:50:38;;;;;;;9.50;3.10;;;;;;;4.34;92.92;100271.25;185482;1235;46536;-69
2023/01/31 08:54:42;;;;;;;17.60;2.40;;;;;;;4.24;95.00;100279.02;185475;1235;45879;-69
2023/01/31 08:58:49;;;;;;;5.20;2.60;;;;;;;4.03;98.54;100291.02;185541;1237;58032;-70
2023/01/31 09:02:54;;;;;;;4.70;2.50;;;;;;;3.96;99.77;100291.92;185654;1233;45982;-70
2023/01/31 09:06:56;;;;;;;7.60;2.50;;;;;;;3.95;100.00;100291.11;185245;1235;44616;-70
2023/01/31 09:10:59;;;;;;;7.50;2.70;;;;;;;3.96;100.00;100297.04;185738;1234;45828;-69
2023/01/31 09:15:03;;;;;;;6.50;3.30;;;;;;;3.98;100.00;100304.67;185512;1235;45870;-69
2023/01/31 09:19:06;;;;;;;8.40;4.80;;;;;;;3.98;100.00;100308.66;185502;1234;58922;-69
2023/01/31 09:23:07;;;;;;;5.80;3.10;;;;;;;4.06;99.95;100302.46;185387;1235;43737;-69
2023/01/31 09:27:09;;;;;;;11.10;4.70;;;;;;;4.04;99.90;100299.60;185437;1235;45982;-69
2023/01/31 09:31:14;;;;;;;11.20;3.90;;;;;;;4.08;99.82;100304.44;185515;1235;46431;-70
2023/01/31 09:35:18;;;;;;;14.30;4.40;;;;;;;4.16;99.92;100303.50;185468;1235;45903;-69
2023/01/31 09:39:20;;;;;;;10.70;4.50;;;;;;;4.34;99.63;100301.64;185507;1234;57182;-69
2023/01/31 09:43:32;;;;;;;9.40;4.30;;;;;;;4.43;97.83;100298.16;185463;1233;44509;-70
2023/01/31 09:47:52;;;;;;;9.40;4.30;;;;;;;4.64;97.52;100297.53;185897;1234;45884;-70
2023/01/31 09:52:00;;;;;;;13.30;4.80;;;;;;;4.73;96.48;100306.52;185468;1234;44088;-70
2023/01/31 09:56:46;;;;;;;9.30;3.20;;;;;;;4.79;94.81;100299.45;185631;1233;44566;-69
2023/01/31 10:01:02;;;;;;;5.10;2.90;;;;;;;4.90;94.52;100293.41;185384;1235;58224;-69
2023/01/31 10:05:22;;;;;;;9.50;3.60;;;;;;;5.00;92.99;100292.86;185454;1234;43762;-69
2023/01/31 10:09:39;;;;;;;13.70;3.00;;;;;;;5.05;92.47;100289.37;185823;1234;43495;-69
2023/01/31 10:13:53;;;;;;;6.20;2.80;;;;;;;5.00;92.46;100293.52;185349;1233;43456;-70
2023/01/31 10:18:07;;;;;;;4.00;2.40;;;;;;;5.08;91.77;100294.10;185504;1234;45962;-69
2023/01/31 10:22:22;;;;;;;13.70;2.50;;;;;;;5.13;92.48;100285.23;185328;1234;58130;-69
2023/01/31 10:26:36;;;;;;;8.20;2.90;;;;;;;5.19;91.98;100289.46;185573;1235;46036;-69
2023/01/31 10:31:01;;;;;;;16.50;4.70;;;;;;;5.17;90.54;100279.36;185301;1234;44004;-69
2023/01/31 10:35:45;;;;;;;13.40;3.90;;;;;;;5.38;90.83;100266.70;185537;1235;43479;-70
2023/01/31 10:39:52;;;;;;;8.10;3.10;;;;;;;5.37;91.32;100269.08;184436;1241;43837;-70
2023/01/31 10:44:02;;;;;;;5.50;3.20;;;;;;;5.37;91.12;100265.52;184213;1244;57521;-69
2023/01/31 10:48:19;;;;;;;11.40;2.70;;;;;;;5.31;91.80;100258.98;184153;1241;45984;-69
2023/01/31 10:52:32;;;;;;;6.00;2.20;;;;;;;5.28;93.65;100264.77;184257;1241;44449;-69
2023/01/31 10:56:41;;;;;;;7.30;2.80;;;;;;;5.29;94.54;100264.25;184383;1241;45982;-69
2023/01/31 11:00:46;;;;;;;7.30;3.10;;;;;;;5.47;95.90;100261.77;184722;1241;43504;-69
2023/01/31 11:04:52;;;;;;;6.90;3.10;;;;;;;5.44;94.77;100258.97;184453;1241;59994;-69
2023/01/31 11:09:20;;;;;;;4.30;1.60;;;;;;;5.37;95.30;100256.58;184242;1242;45944;-72
2023/01/31 11:13:25;;;;;;;7.10;3.00;;;;;;;5.24;95.77;100253.44;184370;1235;44891;-69
2023/01/31 11:17:27;;;;;;;2.10;1.50;;;;;;;5.20;96.53;100255.98;185558;1234;46118;-70
2023/01/31 11:21:33;;;;;;;4.70;2.90;;;;;;;5.10;97.45;100244.46;185471;1235;46579;-70
2023/01/31 11:25:34;;;;;;;5.20;2.70;;;;;;;5.06;98.22;100244.86;185726;1236;57241;-69
2023/01/31 11:29:48;;;;;;;3.20;2.30;;;;;;;5.06;97.56;100227.27;185387;1234;45867;-70
2023/01/31 11:34:01;;;;;;;5.70;3.30;;;;;;;5.17;97.99;100223.48;185517;1234;44517;-69
2023/01/31 11:38:09;;;;;;;7.90;3.40;;;;;;;5.27;97.61;100209.67;185743;1235;44646;-69
2023/01/31 11:42:14;;;;;;;5.00;2.70;;;;;;;5.35;97.17;100206.19;185635;1234;44457;-69
2023/01/31 11:46:16;;;;;;;11.20;4.00;;;;;;;5.36;97.01;100199.45;185699;1234;57892;-69
2023/01/31 11:50:43;;;;;;;13.80;3.00;;;;;;;5.38;96.89;100197.91;185938;1233;46125;-69
2023/01/31 11:54:56;;;;;;;10.20;3.70;;;;;;;5.45;97.72;100191.16;185751;1234;43903;-69
2023/01/31 11:59:08;;;;;;;5.10;2.40;;;;;;;5.39;96.27;100181.88;185763;1237;43868;-69
2023/01/31 12:03:16;;;;;;;8.30;3.70;;;;;;;5.35;96.45;100176.16;185603;1233;44516;-69
2023/01/31 12:07:27;;;;;;;10.80;2.90;;;;;;;5.21;98.62;100168.17;185563;1234;59078;-69
2023/01/31 12:11:32;;;;;;;24.40;4.80;;;;;;;5.15;98.05;100159.41;185360;1234;44257;-70
2023/01/31 12:15:34;;;;;;;13.60;5.10;;;;;;;5.11;98.70;100157.00;185344;1234;45942;-69
2023/01/31 12:19:50;;;;;;;13.20;4.10;;;;;;;5.10;98.83;100160.77;185535;1234;44416;-69
2023/01/31 12:23:55;;;;;;;7.60;3.90;;;;;;;5.13;97.91;100135.98;185509;1234;43702;-70
2023/01/31 12:28:25;;;;;;;7.70;4.30;;;;;;;5.11;97.87;100132.91;185529;1234;58231;-69
2023/01/31 12:32:30;;;;;;;12.40;4.70;;;;;;;5.18;97.97;100132.69;185466;1236;46120;-69
2023/01/31 12:36:42;;;;;;;14.40;4.10;;;;;;;5.33;98.13;100134.20;185680;1237;44650;-70
2023/01/31 12:41:06;;;;;;;12.50;3.50;;;;;;;5.45;96.45;100132.23;185698;1234;45877;-69
2023/01/31 12:45:30;;;;;;;9.60;4.60;;;;;;;5.52;95.09;100125.14;185467;1234;45947;-69
2023/01/31 12:50:01;;;;;;;6.50;4.10;;;;;;;5.57;94.25;100118.46;185838;1234;59424;-69
2023/01/31 12:59:55;;;;;;;9.60;5.00;;;;;;;5.53;93.28;100093.26;185666;1237;46069;-70
2023/01/31 13:04:45;;;;;;;7.60;3.90;;;;;;;5.50;93.01;100085.50;184682;1242;43519;-70
2023/01/31 13:09:00;;;;;;;10.40;4.70;;;;;;;5.50;92.90;100081.30;184004;1248;44600;-70
2023/01/31 13:13:35;;;;;;;6.60;3.10;;;;;;;5.46;92.23;100072.55;183241;1247;58631;-69
2023/01/31 13:17:43;;;;;;;11.70;2.60;;;;;;;5.50;92.17;100056.29;183653;1248;43692;-69
2023/01/31 13:21:50;;;;;;;7.20;4.20;;;;;;;5.52;91.85;100044.23;183491;1247;46001;-69
2023/01/31 13:26:08;;;;;;;7.70;3.50;;;;;;;5.54;91.24;100039.52;183682;1248;44663;-69
2023/01/31 13:30:28;;;;;;;4.00;2.60;;;;;;;5.57;90.93;100028.75;183336;1248;43510;-71
2023/01/31 13:34:53;;;;;;;4.70;3.30;;;;;;;5.56;90.67;100022.63;183534;1248;58229;-69
2023/01/31 13:38:58;;;;;;;8.90;3.30;;;;;;;5.51;92.22;100018.79;184115;1242;44635;-69
2023/01/31 13:43:11;;;;;;;7.80;4.10;;;;;;;5.49;93.79;100026.45;184463;1242;45886;-69
2023/01/31 13:47:32;;;;;;;18.40;4.90;;;;;;;5.47;93.35;100017.45;185614;1234;44556;-69
2023/01/31 13:51:41;;;;;;;7.60;4.40;;;;;;;5.36;92.59;100010.92;185511;1234;43555;-70
2023/01/31 13:56:07;;;;;;;12.80;4.50;;;;;;;5.29;94.07;100008.04;185505;1234;58087;-70
2023/01/31 14:00:31;;;;;;;7.50;4.60;;;;;;;5.20;94.22;100005.65;185600;1234;45919;-69
2023/01/31 14:04:36;;;;;;;9.20;3.10;;;;;;;5.19;94.44;100000.77;185718;1233;43605;-70
2023/01/31 14:08:50;;;;;;;13.90;4.10;;;;;;;5.21;94.69;99996.05;185340;1234;43609;-69
2023/01/31 14:13:36;;;;;;;4.70;3.00;;;;;;;5.20;94.54;99994.91;185657;1235;45875;-71
2023/01/31 14:17:38;;;;;;;10.60;4.20;;;;;;;5.26;94.69;99987.48;185545;1237;282440;-69
2023/01/31 14:22:06;;;;;;;10.70;4.60;;;;;;;5.27;93.48;99986.17;185934;1234;43591;-70
2023/01/31 14:26:42;;;;;;;4.80;3.10;;;;;;;5.23;93.77;99978.70;185541;1233;43683;-71
2023/01/31 14:30:47;;;;;;;5.50;3.40;;;;;;;5.18;94.87;99973.97;185686;1234;44553;-70
2023/01/31 14:34:49;;;;;;;11.80;4.60;;;;;;;5.17;95.42;99969.63;185602;1234;44564;-70
2023/01/31 14:39:17;;;;;;;14.30;4.40;;;;;;;5.16;95.79;99963.00;185559;1233;58196;-70
2023/01/31 14:43:29;;;;;;;10.90;4.10;;;;;;;5.12;96.18;99974.13;185691;1233;44932;-70
2023/01/31 14:47:48;;;;;;;11.20;4.90;;;;;;;5.11;95.83;99969.12;185455;1234;46380;-71
2023/01/31 14:52:21;;;;;;;9.70;3.90;;;;;;;5.16;96.16;99967.73;185417;1234;43584;-69
2023/01/31 14:57:03;;;;;;;9.80;4.10;;;;;;;5.16;95.87;99962.66;185299;1234;44693;-69
2023/01/31 15:01:11;;;;;;;14.10;4.80;;;;;;;5.13;96.02;99958.80;185658;1234;59010;-71
2023/01/31 15:05:31;;;;;;;11.30;3.90;;;;;;;5.11;95.50;99955.26;185581;1234;43580;-74
2023/01/31 15:09:38;;;;;;;9.30;4.60;;;;;;;5.02;96.02;99951.59;186110;1234;43817;-74
2023/01/31 15:13:47;;;;;;;9.60;4.50;;;;;;;4.97;96.72;99952.20;185439;1233;44913;-72
2023/01/31 15:18:02;;;;;;;12.40;4.70;;;;;;;4.95;97.20;99950.80;185472;1233;45954;-72
2023/01/31 15:22:07;;;;;;;9.40;4.90;;;;;;;4.94;97.39;99947.51;185919;1232;59409;-72
2023/01/31 15:26:10;;;;;;;5.80;3.10;;;;;;;4.86;97.46;99944.29;185461;1233;45975;-72
2023/01/31 15:30:25;;;;;;;16.50;4.30;;;;;;;4.87;97.51;99929.35;185943;1233;45393;-71
2023/01/31 15:34:48;;;;;;;7.50;3.90;;;;;;;4.90;97.47;99928.39;185958;1234;46030;-70
2023/01/31 15:39:40;;;;;;;9.40;4.20;;;;;;;4.90;97.53;99917.71;185861;1233;45963;-70
2023/01/31 15:43:42;;;;;;;10.90;4.60;;;;;;;4.93;97.43;99916.81;185045;1239;56932;-70
2023/01/31 15:47:55;;;;;;;7.80;4.70;;;;;;;4.93;96.71;99916.12;184894;1240;44584;-71
2023/01/31 15:52:20;;;;;;;10.20;4.40;;;;;;;4.92;96.59;99911.77;185036;1239;45088;-70
2023/01/31 15:56:25;;;;;;;6.50;4.70;;;;;;;4.93;96.24;99912.07;184946;1239;43757;-71
2023/01/31 16:00:37;;;;;;;10.40;3.80;;;;;;;4.93;96.20;99911.55;185038;1240;43758;-71
2023/01/31 16:04:39;;;;;;;7.20;4.50;;;;;;;4.95;96.30;99902.27;184872;1240;59152;-71
2023/01/31 16:08:40;;;;;;;6.30;4.30;;;;;;;4.97;96.22;99890.23;184930;1240;43792;-70
2023/01/31 16:12:50;;;;;;;19.80;5.70;;;;;;;4.94;96.30;99882.30;185087;1239;44581;-71
2023/01/31 16:16:57;;;;;;;8.50;3.00;;;;;;;4.93;96.39;99890.80;185472;1233;45981;-71
2023/01/31 16:21:24;;;;;;;12.80;5.90;;;;;;;4.93;96.80;99887.46;186027;1232;45967;-71
2023/01/31 16:25:26;;;;;;;8.10;3.80;;;;;;;4.92;97.79;99894.54;186152;1234;58867;-73
2023/01/31 16:34:22;;;;;;;11.10;4.10;;;;;;;4.87;98.74;99885.76;185910;1233;43942;-71
2023/01/31 16:38:26;;;;;;;7.80;4.50;;;;;;;4.87;99.15;99885.41;186036;1234;44778;-72
2023/01/31 16:42:38;;;;;;;9.90;4.50;;;;;;;4.84;99.87;99885.42;186036;1234;43435;-73
2023/01/31 16:46:44;;;;;;;10.40;3.10;;;;;;;4.78;100.00;99883.18;185995;1234;58146;-72
2023/01/31 16:50:48;;;;;;;7.00;4.20;;;;;;;4.73;100.00;99877.34;186045;1234;44149;-73
2023/01/31 16:54:53;;;;;;;13.10;4.90;;;;;;;4.74;100.00;99870.42;185870;1234;43454;-72
2023/01/31 16:58:58;;;;;;;7.50;3.50;;;;;;;4.68;100.00;99868.66;185911;1235;43985;-72
2023/01/31 17:03:01;;;;;;;6.90;3.70;;;;;;;4.64;100.00;99871.38;186072;1233;45843;-73
2023/01/31 17:07:11;;;;;;;8.30;4.00;;;;;;;4.61;100.00;99856.98;185853;1234;59147;-74
2023/01/31 17:11:16;;;;;;;4.80;3.50;;;;;;;4.60;100.00;99849.52;185896;1232;46015;-73
2023/01/31 17:15:39;;;;;;;7.60;4.90;;;;;;;4.58;100.00;99845.05;186057;1234;44528;-73
2023/01/31 17:19:46;;;;;;;15.60;4.90;;;;;;;4.57;100.00;99835.65;185826;1233;44988;-72
2023/01/31 17:23:48;;;;;;;9.40;4.30;;;;;;;4.58;100.00;99837.00;185767;1234;44563;-73
2023/01/31 17:27:50;;;;;;;6.30;3.50;;;;;;;4.58;100.00;99827.52;185992;1234;60107;-72
2023/01/31 17:31:52;;;;;;;5.80;3.70;;;;;;;4.59;100.00;99821.83;185921;1232;44607;-72
2023/01/31 17:35:53;;;;;;;9.60;5.00;;;;;;;4.56;100.00;99827.45;185942;1233;43311;-72
2023/01/31 17:39:55;;;;;;;7.50;5.50;;;;;;;4.55;100.00;99816.64;185902;1233;43488;-73
2023/01/31 17:43:57;;;;;;;14.70;4.60;;;;;;;4.52;100.00;99812.46;185824;1235;43701;-71
2023/01/31 17:47:58;;;;;;;6.90;3.10;;;;;;;4.50;100.00;99814.65;185856;1234;57879;-72
2023/01/31 17:52:02;;;;;;;8.50;3.40;;;;;;;4.49;100.00;99801.02;185745;1233;43414;-71
2023/01/31 17:56:04;;;;;;;7.80;3.70;;;;;;;4.48;100.00;99796.02;185858;1233;45844;-71
2023/01/31 18:00:12;;;;;;;4.00;3.50;;;;;;;4.52;100.00;99791.20;185824;1234;45999;-71
2023/01/31 18:04:13;;;;;;;9.40;3.50;;;;;;;4.52;100.00;99779.05;185797;1233;44028;-71
2023/01/31 18:08:15;;;;;;;9.40;4.60;;;;;;;4.51;100.00;99781.08;185834;1234;58789;-71
2023/01/31 18:12:17;;;;;;;4.90;3.40;;;;;;;4.52;100.00;99792.44;185998;1234;43537;-71
2023/01/31 18:16:20;;;;;;;6.40;3.80;;;;;;;4.54;100.00;99793.89;186004;1234;43458;-71
2023/01/31 18:20:22;;;;;;;5.60;3.60;;;;;;;4.52;100.00;99790.29;186180;1234;43485;-71
2023/01/31 18:24:24;;;;;;;5.80;4.30;;;;;;;4.55;100.00;99785.91;186107;1234;43446;-71
2023/01/31 18:28:26;;;;;;;5.70;4.20;;;;;;;4.59;100.00;99783.74;186047;1234;60033;-71
2023/01/31 18:32:28;;;;;;;8.80;4.50;;;;;;;4.56;100.00;99760.36;185942;1234;44547;-70
2023/01/31 18:36:29;;;;;;;6.90;3.70;;;;;;;4.54;100.00;99763.50;185732;1234;44639;-70
2023/01/31 18:40:32;;;;;;;9.10;2.90;;;;;;;4.59;100.00;99753.52;185351;1233;45874;-71
2023/01/31 18:45:04;;;;;;;6.30;3.70;;;;;;;4.59;100.00;99744.39;185414;1234;46011;-71
2023/01/31 18:49:06;;;;;;;6.20;3.00;;;;;;;4.61;100.00;99751.08;185576;1236;59881;-71
2023/01/31 18:53:07;;;;;;;5.40;4.40;;;;;;;4.63;100.00;99759.41;185635;1234;44850;-71
2023/01/31 19:02:09;;;;;;;7.40;3.70;;;;;;;4.69;100.00;99754.40;185770;1233;45047;-71
2023/01/31 19:06:26;;;;;;;6.20;4.80;;;;;;;4.72;100.00;99756.19;185597;1232;44684;-71
2023/01/31 19:10:28;;;;;;;9.50;5.80;;;;;;;4.72;100.00;99751.60;185458;1233;57984;-71
2023/01/31 19:14:30;;;;;;;8.70;4.70;;;;;;;4.76;100.00;99735.91;185657;1234;46069;-70
2023/01/31 19:18:33;;;;;;;6.60;4.00;;;;;;;4.78;100.00;99729.58;185386;1232;45979;-72
2023/01/31 19:22:34;;;;;;;7.10;4.00;;;;;;;4.84;100.00;99737.46;185552;1233;43742;-71
2023/01/31 19:26:36;;;;;;;5.00;3.50;;;;;;;4.87;100.00;99740.28;185610;1234;44745;-72
2023/01/31 19:30:38;;;;;;;5.10;3.30;;;;;;;4.93;100.00;99725.29;185612;1236;58090;-71
2023/01/31 19:35:06;;;;;;;7.30;3.90;;;;;;;4.93;100.00;99723.15;185559;1233;45289;-71
2023/01/31 19:39:11;;;;;;;9.30;4.30;;;;;;;4.95;100.00;99727.10;185677;1236;44728;-72
2023/01/31 19:43:13;;;;;;;4.10;3.70;;;;;;;4.96;100.00;99721.39;185544;1233;44576;-72
2023/01/31 19:47:15;;;;;;;5.90;3.40;;;;;;;4.95;100.00;99716.16;185621;1233;44612;-71
2023/01/31 19:51:20;;;;;;;3.90;3.60;;;;;;;4.91;100.00;99706.61;185394;1234;59754;-71
2023/01/31 19:55:24;;;;;;;6.20;3.40;;;;;;;4.92;100.00;99696.71;185499;1233;43418;-71
2023/01/31 19:59:25;;;;;;;8.50;5.60;;;;;;;4.87;100.00;99689.16;185510;1234;44609;-71
2023/01/31 20:03:33;;;;;;;8.50;3.50;;;;;;;4.85;100.00;99693.62;185682;1233;44592;-71
2023/01/31 20:07:35;;;;;;;5.30;3.70;;;;;;;4.88;100.00;99685.91;185498;1233;45950;-71
2023/01/31 20:11:45;;;;;;;7.00;4.90;;;;;;;4.92;100.00;99685.27;185452;1233;58965;-71
2023/01/31 20:15:47;;;;;;;4.30;3.70;;;;;;;4.97;100.00;99670.73;185524;1233;46001;-71
2023/01/31 20:19:56;;;;;;;5.50;3.30;;;;;;;5.03;100.00;99681.02;185332;1234;44530;-71
2023/01/31 20:23:57;;;;;;;5.60;3.20;;;;;;;5.08;100.00;99669.47;185569;1233;46640;-71
2023/01/31 20:28:12;;;;;;;5.70;2.40;;;;;;;5.13;100.00;99676.86;185732;1233;45912;-71
2023/01/31 20:32:16;;;;;;;5.80;3.70;;;;;;;5.13;100.00;99680.16;185495;1234;59406;-71
2023/01/31 20:36:18;;;;;;;8.70;3.90;;;;;;;5.09;100.00;99679.18;185388;1233;44927;-70
2023/01/31 20:40:20;;;;;;;10.10;4.30;;;;;;;5.11;100.00;99676.79;185640;1233;45931;-70
2023/01/31 20:44:22;;;;;;;7.20;4.00;;;;;;;5.10;100.00;99684.74;185414;1236;46169;-70
2023/01/31 20:48:24;;;;;;;5.00;2.90;;;;;;;5.10;100.00;99691.80;185312;1234;43547;-70
2023/01/31 20:52:25;;;;;;;5.80;3.40;;;;;;;5.14;100.00;99691.70;185625;1234;58104;-70
2023/01/31 21:03:20;;;;;;;6.60;3.80;;;;;;;5.34;100.00;99684.39;185561;1234;44592;-70
2023/01/31 21:07:22;;;;;;;5.60;3.60;;;;;;;5.36;100.00;99670.85;186361;1234;43452;-71
2023/01/31 21:11:47;;;;;;;8.80;3.70;;;;;;;5.37;100.00;99662.52;185421;1233;43475;-70
2023/01/31 21:15:54;;;;;;;6.30;4.40;;;;;;;5.39;100.00;99669.26;185527;1233;57920;-70
2023/01/31 21:20:00;;;;;;;3.80;2.90;;;;;;;5.36;100.00;99673.87;185486;1232;45990;-70
2023/01/31 21:24:03;;;;;;;7.90;4.80;;;;;;;5.31;100.00;99670.14;185519;1234;43497;-71
2023/01/31 21:28:25;;;;;;;8.60;3.30;;;;;;;5.33;100.00;99670.55;185564;1233;45921;-70